Terminal Aerodrome Forecast
Issued by NWS

Home | Current Version | Previous Version | Text Only | Print | Product List | Glossary On
Versions: 1 2 3 4 5 6 7 8 9 10 11 12 13
049
FTUS42 TJSJ 290520
TAFIST
TAF
TIST 290520Z 2906/3006 07006KT P6SM VCSH SCT025
     FM291300 12012KT P6SM VCSH SCT025
     FM291630 14012KT P6SM VCSH SCT028 BKN035
     FM292130 06006KT P6SM VCSH SCT025 SCT035=

USA.gov is the U.S. government's official web portal to all federal, state and local government web resources and services.